sensor_id;sensor_type;location;lat;lon;timestamp;pressure;altitude;pressure_sealevel;temperature;humidity
74336;BME280;62755;-33.398;-70.572;2024-01-30T00:01:53;93102.94;;;28.76;42.30
74336;BME280;62755;-33.398;-70.572;2024-01-30T00:04:23;93099.34;;;28.31;43.05
74336;BME280;62755;-33.398;-70.572;2024-01-30T00:06:52;93105.44;;;28.42;42.58
74336;BME280;62755;-33.398;-70.572;2024-01-30T00:09:22;93096.13;;;28.14;43.03
74336;BME280;62755;-33.398;-70.572;2024-01-30T00:11:52;93107.84;;;28.33;42.57
74336;BME280;62755;-33.398;-70.572;2024-01-30T00:14:21;93109.63;;;28.49;42.66
74336;BME280;62755;-33.398;-70.572;2024-01-30T00:16:53;93113.06;;;28.55;42.33
74336;BME280;62755;-33.398;-70.572;2024-01-30T00:19:23;93113.88;;;28.50;42.26
74336;BME280;62755;-33.398;-70.572;2024-01-30T00:21:52;93114.56;;;28.37;42.45
74336;BME280;62755;-33.398;-70.572;2024-01-30T00:24:20;93119.19;;;28.48;42.48
74336;BME280;62755;-33.398;-70.572;2024-01-30T00:26:50;93123.47;;;28.62;42.53
74336;BME280;62755;-33.398;-70.572;2024-01-30T00:29:20;93123.75;;;28.27;43.05
74336;BME280;62755;-33.398;-70.572;2024-01-30T00:31:50;93134.00;;;28.45;42.79
74336;BME280;62755;-33.398;-70.572;2024-01-30T00:34:21;93121.88;;;28.35;42.92
74336;BME280;62755;-33.398;-70.572;2024-01-30T00:36:51;93132.75;;;28.46;42.24
74336;BME280;62755;-33.398;-70.572;2024-01-30T00:39:21;93132.69;;;28.33;42.71
74336;BME280;62755;-33.398;-70.572;2024-01-30T00:41:50;93132.41;;;28.18;43.32
74336;BME280;62755;-33.398;-70.572;2024-01-30T00:44:20;93109.69;;;28.12;42.87
74336;BME280;62755;-33.398;-70.572;2024-01-30T00:46:50;93133.66;;;28.17;43.15
74336;BME280;62755;-33.398;-70.572;2024-01-30T00:49:21;93135.59;;;28.22;42.67
74336;BME280;62755;-33.398;-70.572;2024-01-30T00:51:51;93128.31;;;28.06;42.98
74336;BME280;62755;-33.398;-70.572;2024-01-30T00:54:21;93125.03;;;28.26;42.86
74336;BME280;62755;-33.398;-70.572;2024-01-30T00:56:51;93133.53;;;28.28;43.10
74336;BME280;62755;-33.398;-70.572;2024-01-30T00:59:21;93134.88;;;28.03;43.20
74336;BME280;62755;-33.398;-70.572;2024-01-30T01:01:51;93124.59;;;27.60;43.95
74336;BME280;62755;-33.398;-70.572;2024-01-30T01:04:23;93129.22;;;27.52;44.16
74336;BME280;62755;-33.398;-70.572;2024-01-30T01:06:55;93139.50;;;27.95;43.63
74336;BME280;62755;-33.398;-70.572;2024-01-30T01:09:25;93136.34;;;27.85;43.99
74336;BME280;62755;-33.398;-70.572;2024-01-30T01:11:56;93139.16;;;27.79;44.00
74336;BME280;62755;-33.398;-70.572;2024-01-30T01:14:26;93115.78;;;27.67;44.16
74336;BME280;62755;-33.398;-70.572;2024-01-30T01:16:56;93139.50;;;27.95;43.41
74336;BME280;62755;-33.398;-70.572;2024-01-30T01:19:29;93142.47;;;28.15;43.18
74336;BME280;62755;-33.398;-70.572;2024-01-30T01:21:59;93142.38;;;28.21;43.47
74336;BME280;62755;-33.398;-70.572;2024-01-30T01:24:29;93140.97;;;28.33;42.99
74336;BME280;62755;-33.398;-70.572;2024-01-30T01:27:00;93145.13;;;28.21;42.71
74336;BME280;62755;-33.398;-70.572;2024-01-30T01:29:30;93138.69;;;28.18;42.68
74336;BME280;62755;-33.398;-70.572;2024-01-30T01:32:00;93151.47;;;28.34;42.55
74336;BME280;62755;-33.398;-70.572;2024-01-30T01:34:31;93144.09;;;28.24;42.82
74336;BME280;62755;-33.398;-70.572;2024-01-30T01:37:01;93146.34;;;28.44;42.45
74336;BME280;62755;-33.398;-70.572;2024-01-30T01:39:31;93145.88;;;28.40;42.56
74336;BME280;62755;-33.398;-70.572;2024-01-30T01:42:01;93151.84;;;28.44;42.82
74336;BME280;62755;-33.398;-70.572;2024-01-30T01:44:33;93145.25;;;28.47;42.63
74336;BME280;62755;-33.398;-70.572;2024-01-30T01:47:04;93151.84;;;28.44;42.78
74336;BME280;62755;-33.398;-70.572;2024-01-30T01:49:36;93151.41;;;28.40;42.95
74336;BME280;62755;-33.398;-70.572;2024-01-30T01:52:08;93154.69;;;28.20;43.00
74336;BME280;62755;-33.398;-70.572;2024-01-30T01:54:39;93147.09;;;28.26;42.94
74336;BME280;62755;-33.398;-70.572;2024-01-30T01:57:09;93154.53;;;28.31;42.72
74336;BME280;62755;-33.398;-70.572;2024-01-30T01:59:42;93157.66;;;28.40;42.87
74336;BME280;62755;-33.398;-70.572;2024-01-30T02:02:18;93154.09;;;28.27;43.05
74336;BME280;62755;-33.398;-70.572;2024-01-30T02:04:50;93156.34;;;28.28;42.95
74336;BME280;62755;-33.398;-70.572;2024-01-30T02:07:21;93157.53;;;28.14;43.20
74336;BME280;62755;-33.398;-70.572;2024-01-30T02:09:51;93139.88;;;28.04;42.70
74336;BME280;62755;-33.398;-70.572;2024-01-30T02:12:22;93153.03;;;28.11;43.60
74336;BME280;62755;-33.398;-70.572;2024-01-30T02:14:52;93158.13;;;28.26;42.97
74336;BME280;62755;-33.398;-70.572;2024-01-30T02:17:25;93148.22;;;27.99;43.32
74336;BME280;62755;-33.398;-70.572;2024-01-30T02:19:57;93148.75;;;27.92;43.27
74336;BME280;62755;-33.398;-70.572;2024-01-30T02:22:29;93149.75;;;27.94;43.67
74336;BME280;62755;-33.398;-70.572;2024-01-30T02:24:59;93147.38;;;28.04;43.43
74336;BME280;62755;-33.398;-70.572;2024-01-30T02:27:31;93142.47;;;27.97;43.12
74336;BME280;62755;-33.398;-70.572;2024-01-30T02:30:01;93143.81;;;28.09;42.88
74336;BME280;62755;-33.398;-70.572;2024-01-30T02:32:32;93140.53;;;28.10;43.22
74336;BME280;62755;-33.398;-70.572;2024-01-30T02:35:01;93146.03;;;28.29;42.59
74336;BME280;62755;-33.398;-70.572;2024-01-30T02:37:36;93143.81;;;28.09;42.65
74336;BME280;62755;-33.398;-70.572;2024-01-30T02:40:11;93140.09;;;28.06;43.21
74336;BME280;62755;-33.398;-70.572;2024-01-30T02:42:41;93135.81;;;27.87;43.72
74336;BME280;62755;-33.398;-70.572;2024-01-30T02:45:12;93138.59;;;28.05;43.25
74336;BME280;62755;-33.398;-70.572;2024-01-30T02:47:41;93137.06;;;27.86;43.23
74336;BME280;62755;-33.398;-70.572;2024-01-30T02:50:11;93140.28;;;27.90;43.83
74336;BME280;62755;-33.398;-70.572;2024-01-30T02:52:44;93137.88;;;28.05;43.56
74336;BME280;62755;-33.398;-70.572;2024-01-30T02:55:14;93135.91;;;28.00;43.15
74336;BME280;62755;-33.398;-70.572;2024-01-30T02:57:44;93130.22;;;27.92;43.42
74336;BME280;62755;-33.398;-70.572;2024-01-30T03:00:15;93137.09;;;28.04;43.44
74336;BME280;62755;-33.398;-70.572;2024-01-30T03:02:44;93135.91;;;28.00;42.90
74336;BME280;62755;-33.398;-70.572;2024-01-30T03:05:14;93134.38;;;27.80;43.91
74336;BME280;62755;-33.398;-70.572;2024-01-30T03:07:45;93135.47;;;27.96;43.52
74336;BME280;62755;-33.398;-70.572;2024-01-30T03:10:15;93130.06;;;27.85;43.50
74336;BME280;62755;-33.398;-70.572;2024-01-30T03:12:45;93147.97;;;27.54;44.34
74336;BME280;62755;-33.398;-70.572;2024-01-30T03:15:14;93136.44;;;27.55;44.06
74336;BME280;62755;-33.398;-70.572;2024-01-30T03:17:44;93134.56;;;27.45;44.37
74336;BME280;62755;-33.398;-70.572;2024-01-30T03:20:14;93141.78;;;27.48;44.17
74336;BME280;62755;-33.398;-70.572;2024-01-30T03:22:45;93144.34;;;27.46;43.82
74336;BME280;62755;-33.398;-70.572;2024-01-30T03:25:15;93138.59;;;27.62;43.79
74336;BME280;62755;-33.398;-70.572;2024-01-30T03:27:44;93142.53;;;27.24;44.56
74336;BME280;62755;-33.398;-70.572;2024-01-30T03:30:14;93142.41;;;27.11;44.96
74336;BME280;62755;-33.398;-70.572;2024-01-30T03:32:44;93140.75;;;27.03;44.80
74336;BME280;62755;-33.398;-70.572;2024-01-30T03:35:14;93142.97;;;27.04;44.64
74336;BME280;62755;-33.398;-70.572;2024-01-30T03:37:45;93142.03;;;26.96;44.58
74336;BME280;62755;-33.398;-70.572;2024-01-30T03:40:15;93138.59;;;26.90;44.51
74336;BME280;62755;-33.398;-70.572;2024-01-30T03:42:45;93134.41;;;26.83;45.03
74336;BME280;62755;-33.398;-70.572;2024-01-30T03:45:14;93145.88;;;26.87;45.17
74336;BME280;62755;-33.398;-70.572;2024-01-30T03:47:46;93148.47;;;27.04;44.93
74336;BME280;62755;-33.398;-70.572;2024-01-30T03:50:16;93139.88;;;27.13;44.68
74336;BME280;62755;-33.398;-70.572;2024-01-30T03:52:47;93134.47;;;27.02;45.11
74336;BME280;62755;-33.398;-70.572;2024-01-30T03:55:17;93139.38;;;26.85;45.37
74336;BME280;62755;-33.398;-70.572;2024-01-30T03:57:46;93138.94;;;26.81;45.06
74336;BME280;62755;-33.398;-70.572;2024-01-30T04:00:16;93138.72;;;26.79;45.16
74336;BME280;62755;-33.398;-70.572;2024-01-30T04:02:46;93135.78;;;26.66;45.21
74336;BME280;62755;-33.398;-70.572;2024-01-30T04:05:15;93133.63;;;26.88;45.53
74336;BME280;62755;-33.398;-70.572;2024-01-30T04:07:47;93140.66;;;26.84;44.79
74336;BME280;62755;-33.398;-70.572;2024-01-30T04:10:17;93140.19;;;26.80;44.92
74336;BME280;62755;-33.398;-70.572;2024-01-30T04:12:46;93134.75;;;26.69;45.39
74336;BME280;62755;-33.398;-70.572;2024-01-30T04:15:16;93133.34;;;26.57;45.24
74336;BME280;62755;-33.398;-70.572;2024-01-30T04:17:45;93121.00;;;26.69;45.66
74336;BME280;62755;-33.398;-70.572;2024-01-30T04:20:15;93126.81;;;26.60;45.29
74336;BME280;62755;-33.398;-70.572;2024-01-30T04:22:47;93124.72;;;27.01;44.66
74336;BME280;62755;-33.398;-70.572;2024-01-30T04:25:16;93110.50;;;26.97;44.46
74336;BME280;62755;-33.398;-70.572;2024-01-30T04:27:46;93116.00;;;26.97;44.90
74336;BME280;62755;-33.398;-70.572;2024-01-30T04:30:16;93126.53;;;26.93;44.50
74336;BME280;62755;-33.398;-70.572;2024-01-30T04:32:45;93119.28;;;26.95;44.67
74336;BME280;62755;-33.398;-70.572;2024-01-30T04:35:15;93119.22;;;26.77;45.22
74336;BME280;62755;-33.398;-70.572;2024-01-30T04:37:44;93119.03;;;26.93;44.65
74336;BME280;62755;-33.398;-70.572;2024-01-30T04:40:16;93105.34;;;26.88;45.06
74336;BME280;62755;-33.398;-70.572;2024-01-30T04:42:45;93123.75;;;26.69;44.81
74336;BME280;62755;-33.398;-70.572;2024-01-30T04:45:15;93111.25;;;26.68;45.40
74336;BME280;62755;-33.398;-70.572;2024-01-30T04:47:44;93110.53;;;26.62;45.19
74336;BME280;62755;-33.398;-70.572;2024-01-30T04:50:14;93090.53;;;26.61;44.88
74336;BME280;62755;-33.398;-70.572;2024-01-30T04:52:43;93110.31;;;26.60;45.15
74336;BME280;62755;-33.398;-70.572;2024-01-30T04:55:15;93106.78;;;26.65;45.68
74336;BME280;62755;-33.398;-70.572;2024-01-30T04:57:44;93109.75;;;26.37;46.02
74336;BME280;62755;-33.398;-70.572;2024-01-30T05:00:14;93111.88;;;26.50;45.51
74336;BME280;62755;-33.398;-70.572;2024-01-30T05:02:44;93096.06;;;26.32;45.79
74336;BME280;62755;-33.398;-70.572;2024-01-30T05:05:14;93110.22;;;26.41;45.85
74336;BME280;62755;-33.398;-70.572;2024-01-30T05:07:43;93108.25;;;26.36;46.31
74336;BME280;62755;-33.398;-70.572;2024-01-30T05:10:15;93084.13;;;26.24;45.85
74336;BME280;62755;-33.398;-70.572;2024-01-30T05:12:44;93100.50;;;26.35;45.61
74336;BME280;62755;-33.398;-70.572;2024-01-30T05:15:14;93101.28;;;26.35;45.77
74336;BME280;62755;-33.398;-70.572;2024-01-30T05:17:44;93095.38;;;26.50;45.99
74336;BME280;62755;-33.398;-70.572;2024-01-30T05:20:14;93095.06;;;26.59;45.43
74336;BME280;62755;-33.398;-70.572;2024-01-30T05:22:43;93084.31;;;26.61;45.29
74336;BME280;62755;-33.398;-70.572;2024-01-30T05:25:15;93083.31;;;26.58;45.74
74336;BME280;62755;-33.398;-70.572;2024-01-30T05:27:45;93091.94;;;26.44;45.85
74336;BME280;62755;-33.398;-70.572;2024-01-30T05:30:15;93088.28;;;26.36;45.75
74336;BME280;62755;-33.398;-70.572;2024-01-30T05:32:45;93068.16;;;26.17;46.17
74336;BME280;62755;-33.398;-70.572;2024-01-30T05:35:14;93083.78;;;26.33;46.17
74336;BME280;62755;-33.398;-70.572;2024-01-30T05:37:43;93090.63;;;26.21;46.71
74336;BME280;62755;-33.398;-70.572;2024-01-30T05:40:15;93083.44;;;26.42;45.86
74336;BME280;62755;-33.398;-70.572;2024-01-30T05:42:45;93083.84;;;26.57;45.84
74336;BME280;62755;-33.398;-70.572;2024-01-30T05:45:14;93085.97;;;26.40;45.60
74336;BME280;62755;-33.398;-70.572;2024-01-30T05:47:44;93084.84;;;26.54;45.88
74336;BME280;62755;-33.398;-70.572;2024-01-30T05:50:13;93073.94;;;26.43;46.20
74336;BME280;62755;-33.398;-70.572;2024-01-30T05:52:43;93076.16;;;26.15;46.51
74336;BME280;62755;-33.398;-70.572;2024-01-30T05:55:13;93069.38;;;25.80;47.65
74336;BME280;62755;-33.398;-70.572;2024-01-30T05:57:44;93067.25;;;25.97;47.29
74336;BME280;62755;-33.398;-70.572;2024-01-30T06:00:14;93059.13;;;26.22;46.79
74336;BME280;62755;-33.398;-70.572;2024-01-30T06:02:44;93059.56;;;25.44;48.00
74336;BME280;62755;-33.398;-70.572;2024-01-30T06:05:14;93046.75;;;25.06;49.38
74336;BME280;62755;-33.398;-70.572;2024-01-30T06:07:43;93055.63;;;25.28;48.97
74336;BME280;62755;-33.398;-70.572;2024-01-30T06:10:13;93048.00;;;25.62;48.50
74336;BME280;62755;-33.398;-70.572;2024-01-30T06:12:44;93056.88;;;25.79;48.18
74336;BME280;62755;-33.398;-70.572;2024-01-30T06:15:15;93044.72;;;26.04;47.29
74336;BME280;62755;-33.398;-70.572;2024-01-30T06:17:45;93049.75;;;26.00;47.91
74336;BME280;62755;-33.398;-70.572;2024-01-30T06:20:14;93042.78;;;25.99;47.87
74336;BME280;62755;-33.398;-70.572;2024-01-30T06:22:45;93049.50;;;26.04;48.38
74336;BME280;62755;-33.398;-70.572;2024-01-30T06:25:14;93053.72;;;26.05;48.60
74336;BME280;62755;-33.398;-70.572;2024-01-30T06:27:46;93041.56;;;25.54;49.59
74336;BME280;62755;-33.398;-70.572;2024-01-30T06:30:16;93046.22;;;25.13;50.48
74336;BME280;62755;-33.398;-70.572;2024-01-30T06:32:45;93048.13;;;25.40;49.60
74336;BME280;62755;-33.398;-70.572;2024-01-30T06:35:15;93046.69;;;25.74;49.55
74336;BME280;62755;-33.398;-70.572;2024-01-30T06:37:44;93043.66;;;25.78;49.31
74336;BME280;62755;-33.398;-70.572;2024-01-30T06:40:14;93040.25;;;25.66;49.45
74336;BME280;62755;-33.398;-70.572;2024-01-30T06:42:46;93030.75;;;26.02;48.71
74336;BME280;62755;-33.398;-70.572;2024-01-30T06:45:15;93042.44;;;26.14;48.35
74336;BME280;62755;-33.398;-70.572;2024-01-30T06:47:45;93033.91;;;26.18;48.41
74336;BME280;62755;-33.398;-70.572;2024-01-30T06:50:15;93024.25;;;26.05;48.00
74336;BME280;62755;-33.398;-70.572;2024-01-30T06:52:44;93026.03;;;25.97;48.58
74336;BME280;62755;-33.398;-70.572;2024-01-30T06:55:14;93037.69;;;26.15;48.47
74336;BME280;62755;-33.398;-70.572;2024-01-30T06:57:45;93029.19;;;26.13;48.50
74336;BME280;62755;-33.398;-70.572;2024-01-30T07:00:16;93026.19;;;26.16;47.71
74336;BME280;62755;-33.398;-70.572;2024-01-30T07:02:46;93031.47;;;26.14;48.27
74336;BME280;62755;-33.398;-70.572;2024-01-30T07:05:16;93024.41;;;26.19;47.89
74336;BME280;62755;-33.398;-70.572;2024-01-30T07:07:46;93024.56;;;26.32;47.70
74336;BME280;62755;-33.398;-70.572;2024-01-30T07:10:15;93020.31;;;25.95;48.99
74336;BME280;62755;-33.398;-70.572;2024-01-30T07:12:47;93009.66;;;25.86;49.16
74336;BME280;62755;-33.398;-70.572;2024-01-30T07:15:16;93009.25;;;26.06;48.99
74336;BME280;62755;-33.398;-70.572;2024-01-30T07:17:47;93009.97;;;26.13;48.45
74336;BME280;62755;-33.398;-70.572;2024-01-30T07:20:17;92996.38;;;25.90;49.10
74336;BME280;62755;-33.398;-70.572;2024-01-30T07:22:47;93006.91;;;25.86;48.70
74336;BME280;62755;-33.398;-70.572;2024-01-30T07:25:17;93005.13;;;25.89;48.79
74336;BME280;62755;-33.398;-70.572;2024-01-30T07:27:48;92996.69;;;25.81;49.08
74336;BME280;62755;-33.398;-70.572;2024-01-30T07:30:18;92997.16;;;25.85;49.09
74336;BME280;62755;-33.398;-70.572;2024-01-30T07:32:48;92993.06;;;25.97;48.40
74336;BME280;62755;-33.398;-70.572;2024-01-30T07:35:18;92997.53;;;25.65;49.02
74336;BME280;62755;-33.398;-70.572;2024-01-30T07:37:47;92995.03;;;25.67;48.72
74336;BME280;62755;-33.398;-70.572;2024-01-30T07:40:17;92989.13;;;25.52;48.72
74336;BME280;62755;-33.398;-70.572;2024-01-30T07:42:48;92990.69;;;25.42;48.85
74336;BME280;62755;-33.398;-70.572;2024-01-30T07:45:18;92973.97;;;24.94;49.38
74336;BME280;62755;-33.398;-70.572;2024-01-30T07:47:49;92987.78;;;25.18;48.76
74336;BME280;62755;-33.398;-70.572;2024-01-30T07:50:19;92968.06;;;25.25;48.03
74336;BME280;62755;-33.398;-70.572;2024-01-30T07:52:48;92979.75;;;25.31;48.46
74336;BME280;62755;-33.398;-70.572;2024-01-30T07:55:21;92977.97;;;25.34;48.48
74336;BME280;62755;-33.398;-70.572;2024-01-30T07:57:56;92973.25;;;25.34;48.17
74336;BME280;62755;-33.398;-70.572;2024-01-30T08:00:25;92976.72;;;25.40;47.73
74336;BME280;62755;-33.398;-70.572;2024-01-30T08:02:56;92983.75;;;25.30;48.22
74336;BME280;62755;-33.398;-70.572;2024-01-30T08:05:25;92979.72;;;25.42;47.79
74336;BME280;62755;-33.398;-70.572;2024-01-30T08:07:55;92978.16;;;25.52;47.66
74336;BME280;62755;-33.398;-70.572;2024-01-30T08:10:24;92970.25;;;25.43;47.71
74336;BME280;62755;-33.398;-70.572;2024-01-30T08:12:55;92980.09;;;25.57;47.82
74336;BME280;62755;-33.398;-70.572;2024-01-30T08:15:25;92977.84;;;25.61;47.67
74336;BME280;62755;-33.398;-70.572;2024-01-30T08:17:55;92976.91;;;25.53;47.69
74336;BME280;62755;-33.398;-70.572;2024-01-30T08:20:26;92973.47;;;25.47;48.16
74336;BME280;62755;-33.398;-70.572;2024-01-30T08:22:55;92969.22;;;25.46;48.17
74336;BME280;62755;-33.398;-70.572;2024-01-30T08:25:25;92983.25;;;25.26;48.20
74336;BME280;62755;-33.398;-70.572;2024-01-30T08:27:56;92980.25;;;25.35;48.76
74336;BME280;62755;-33.398;-70.572;2024-01-30T08:30:27;92968.22;;;25.38;48.12
74336;BME280;62755;-33.398;-70.572;2024-01-30T08:32:56;92975.16;;;25.50;48.33
74336;BME280;62755;-33.398;-70.572;2024-01-30T08:35:26;92988.72;;;25.78;47.75
74336;BME280;62755;-33.398;-70.572;2024-01-30T08:37:55;92984.50;;;25.71;47.38
74336;BME280;62755;-33.398;-70.572;2024-01-30T08:40:25;92987.34;;;25.60;47.37
74336;BME280;62755;-33.398;-70.572;2024-01-30T08:42:56;92985.53;;;25.68;47.18
74336;BME280;62755;-33.398;-70.572;2024-01-30T08:45:25;92977.25;;;25.74;47.49
74336;BME280;62755;-33.398;-70.572;2024-01-30T08:47:55;92987.09;;;25.58;47.42
74336;BME280;62755;-33.398;-70.572;2024-01-30T08:50:25;92985.88;;;25.54;48.13
74336;BME280;62755;-33.398;-70.572;2024-01-30T08:52:54;92990.19;;;25.38;48.03
74336;BME280;62755;-33.398;-70.572;2024-01-30T08:55:24;92989.72;;;25.34;48.27
74336;BME280;62755;-33.398;-70.572;2024-01-30T08:57:56;92994.72;;;25.30;48.61
74336;BME280;62755;-33.398;-70.572;2024-01-30T09:03:01;92984.47;;;24.79;50.46
74336;BME280;62755;-33.398;-70.572;2024-01-30T09:05:30;92992.91;;;24.92;50.10
74336;BME280;62755;-33.398;-70.572;2024-01-30T09:08:00;92987.47;;;24.75;50.74
74336;BME280;62755;-33.398;-70.572;2024-01-30T09:10:29;92990.19;;;24.86;51.01
74336;BME280;62755;-33.398;-70.572;2024-01-30T09:13:01;92998.41;;;24.92;50.88
74336;BME280;62755;-33.398;-70.572;2024-01-30T09:15:30;92978.25;;;24.78;51.09
74336;BME280;62755;-33.398;-70.572;2024-01-30T09:18:00;92998.88;;;24.96;51.34
74336;BME280;62755;-33.398;-70.572;2024-01-30T09:20:29;92984.44;;;24.90;51.34
74336;BME280;62755;-33.398;-70.572;2024-01-30T09:22:59;92982.94;;;24.89;51.29
74336;BME280;62755;-33.398;-70.572;2024-01-30T09:25:28;92982.91;;;25.00;51.54
74336;BME280;62755;-33.398;-70.572;2024-01-30T09:27:59;92979.94;;;24.87;51.39
74336;BME280;62755;-33.398;-70.572;2024-01-30T09:30:29;92976.97;;;24.85;51.11
74336;BME280;62755;-33.398;-70.572;2024-01-30T09:32:59;92974.25;;;24.79;51.31
74336;BME280;62755;-33.398;-70.572;2024-01-30T09:35:28;92980.22;;;24.83;51.26
74336;BME280;62755;-33.398;-70.572;2024-01-30T09:37:58;92979.16;;;24.97;51.04
74336;BME280;62755;-33.398;-70.572;2024-01-30T09:40:28;92981.66;;;25.01;50.75
74336;BME280;62755;-33.398;-70.572;2024-01-30T09:43:01;92979.94;;;24.98;50.66
74336;BME280;62755;-33.398;-70.572;2024-01-30T09:45:33;92986.31;;;25.17;50.76
74336;BME280;62755;-33.398;-70.572;2024-01-30T09:48:04;92984.09;;;25.15;50.63
74336;BME280;62755;-33.398;-70.572;2024-01-30T09:50:35;92981.13;;;25.02;50.76
74336;BME280;62755;-33.398;-70.572;2024-01-30T09:53:05;92982.53;;;25.20;50.45
74336;BME280;62755;-33.398;-70.572;2024-01-30T09:55:36;92986.09;;;25.09;50.87
74336;BME280;62755;-33.398;-70.572;2024-01-30T09:58:08;92990.13;;;25.03;51.09
74336;BME280;62755;-33.398;-70.572;2024-01-30T10:00:37;92977.41;;;24.94;51.01
74336;BME280;62755;-33.398;-70.572;2024-01-30T10:03:07;92984.88;;;25.05;50.99
74336;BME280;62755;-33.398;-70.572;2024-01-30T10:05:37;92979.94;;;24.98;51.05
74336;BME280;62755;-33.398;-70.572;2024-01-30T10:08:09;92982.72;;;24.81;51.44
74336;BME280;62755;-33.398;-70.572;2024-01-30T10:10:39;92981.47;;;24.77;51.23
74336;BME280;62755;-33.398;-70.572;2024-01-30T10:13:10;92975.50;;;24.84;50.96
74336;BME280;62755;-33.398;-70.572;2024-01-30T10:15:40;92976.69;;;24.94;50.96
74336;BME280;62755;-33.398;-70.572;2024-01-30T10:18:12;92992.34;;;25.04;50.77
74336;BME280;62755;-33.398;-70.572;2024-01-30T10:20:41;92981.47;;;24.88;51.08
74336;BME280;62755;-33.398;-70.572;2024-01-30T10:23:10;92983.41;;;24.93;50.77
74336;BME280;62755;-33.398;-70.572;2024-01-30T10:25:41;92991.38;;;25.02;50.21
74336;BME280;62755;-33.398;-70.572;2024-01-30T10:28:12;92994.91;;;24.91;50.36
74336;BME280;62755;-33.398;-70.572;2024-01-30T10:30:41;92983.25;;;24.74;50.73
74336;BME280;62755;-33.398;-70.572;2024-01-30T10:33:11;92998.47;;;24.53;51.80
74336;BME280;62755;-33.398;-70.572;2024-01-30T10:35:41;92993.00;;;24.59;51.22
74336;BME280;62755;-33.398;-70.572;2024-01-30T10:38:12;92998.88;;;24.96;51.06
74336;BME280;62755;-33.398;-70.572;2024-01-30T10:40:46;92985.84;;;25.13;50.73
74336;BME280;62755;-33.398;-70.572;2024-01-30T10:43:20;92987.91;;;24.90;51.05
74336;BME280;62755;-33.398;-70.572;2024-01-30T10:45:54;92997.91;;;24.88;51.34
74336;BME280;62755;-33.398;-70.572;2024-01-30T10:48:30;92997.69;;;24.75;50.76
74336;BME280;62755;-33.398;-70.572;2024-01-30T10:51:03;92996.38;;;24.98;50.12
74336;BME280;62755;-33.398;-70.572;2024-01-30T10:53:34;92999.47;;;24.67;50.81
74336;BME280;62755;-33.398;-70.572;2024-01-30T10:56:04;92992.44;;;24.88;50.89
74336;BME280;62755;-33.398;-70.572;2024-01-30T10:58:36;93002.72;;;25.28;50.29
74336;BME280;62755;-33.398;-70.572;2024-01-30T11:01:07;93006.19;;;25.34;49.63
74336;BME280;62755;-33.398;-70.572;2024-01-30T11:03:37;92998.28;;;25.14;50.41
74336;BME280;62755;-33.398;-70.572;2024-01-30T11:06:11;92997.59;;;25.02;50.28
74336;BME280;62755;-33.398;-70.572;2024-01-30T11:08:45;93001.91;;;24.87;50.57
74336;BME280;62755;-33.398;-70.572;2024-01-30T11:11:17;92997.91;;;24.88;50.03
74336;BME280;62755;-33.398;-70.572;2024-01-30T11:13:50;93001.63;;;24.96;50.49
74336;BME280;62755;-33.398;-70.572;2024-01-30T11:16:21;92999.63;;;25.02;50.01
74336;BME280;62755;-33.398;-70.572;2024-01-30T11:18:51;92996.38;;;24.98;50.32
74336;BME280;62755;-33.398;-70.572;2024-01-30T11:21:21;92998.63;;;24.99;50.36
74336;BME280;62755;-33.398;-70.572;2024-01-30T11:23:55;92990.00;;;24.57;50.76
74336;BME280;62755;-33.398;-70.572;2024-01-30T11:26:29;93006.69;;;24.75;50.55
74336;BME280;62755;-33.398;-70.572;2024-01-30T11:29:03;93004.34;;;25.01;49.99
74336;BME280;62755;-33.398;-70.572;2024-01-30T11:31:32;93000.84;;;25.01;49.86
74336;BME280;62755;-33.398;-70.572;2024-01-30T11:34:01;92993.09;;;25.05;50.12
74336;BME280;62755;-33.398;-70.572;2024-01-30T11:36:32;93004.53;;;25.14;50.22
74336;BME280;62755;-33.398;-70.572;2024-01-30T11:39:04;93001.75;;;25.20;49.84
74336;BME280;62755;-33.398;-70.572;2024-01-30T11:41:35;93004.31;;;25.07;50.15
74336;BME280;62755;-33.398;-70.572;2024-01-30T11:44:08;92998.81;;;25.12;50.78
74336;BME280;62755;-33.398;-70.572;2024-01-30T11:46:38;93001.34;;;25.05;50.71
74336;BME280;62755;-33.398;-70.572;2024-01-30T11:49:07;93007.13;;;24.96;51.66
74336;BME280;62755;-33.398;-70.572;2024-01-30T11:51:37;93009.09;;;25.01;51.47
74336;BME280;62755;-33.398;-70.572;2024-01-30T11:54:07;93000.41;;;24.86;51.41
74336;BME280;62755;-33.398;-70.572;2024-01-30T11:56:38;93014.81;;;25.03;51.44
74336;BME280;62755;-33.398;-70.572;2024-01-30T11:59:09;93013.28;;;25.13;50.67
74336;BME280;62755;-33.398;-70.572;2024-01-30T12:01:39;93009.31;;;25.03;50.17
74336;BME280;62755;-33.398;-70.572;2024-01-30T12:04:08;93011.41;;;24.75;51.40
74336;BME280;62755;-33.398;-70.572;2024-01-30T12:06:38;93022.06;;;24.95;50.30
74336;BME280;62755;-33.398;-70.572;2024-01-30T12:09:08;93018.28;;;25.09;50.45
74336;BME280;62755;-33.398;-70.572;2024-01-30T12:11:46;93012.59;;;25.01;49.76
74336;BME280;62755;-33.398;-70.572;2024-01-30T12:14:19;92992.06;;;25.13;50.18
74336;BME280;62755;-33.398;-70.572;2024-01-30T12:16:49;93015.28;;;25.07;50.24
74336;BME280;62755;-33.398;-70.572;2024-01-30T12:19:23;93017.50;;;25.14;50.34
74336;BME280;62755;-33.398;-70.572;2024-01-30T12:21:55;93008.06;;;25.09;50.06
74336;BME280;62755;-33.398;-70.572;2024-01-30T12:24:26;92994.44;;;24.82;51.05
74336;BME280;62755;-33.398;-70.572;2024-01-30T12:26:58;93010.34;;;25.00;50.54
74336;BME280;62755;-33.398;-70.572;2024-01-30T12:29:32;93020.31;;;25.03;50.54
74336;BME280;62755;-33.398;-70.572;2024-01-30T12:32:02;93016.25;;;25.15;50.35
74336;BME280;62755;-33.398;-70.572;2024-01-30T12:34:31;93002.25;;;25.24;50.53
74336;BME280;62755;-33.398;-70.572;2024-01-30T12:37:02;93013.19;;;25.35;50.17
74336;BME280;62755;-33.398;-70.572;2024-01-30T12:39:33;93008.44;;;25.41;49.61
74336;BME280;62755;-33.398;-70.572;2024-01-30T12:42:04;93012.13;;;25.49;49.12
74336;BME280;62755;-33.398;-70.572;2024-01-30T12:44:35;93013.69;;;25.28;49.62
74336;BME280;62755;-33.398;-70.572;2024-01-30T12:47:05;93014.88;;;25.49;49.77
74336;BME280;62755;-33.398;-70.572;2024-01-30T12:49:35;93016.59;;;25.52;49.40